Time;durP1;ratioP1;P1;durP2;ratioP2;P2;SDS_P1;SDS_P2;PMS_P1;PMS_P2;Temp;Humidity;BMP_temperature;BMP_pressure;BME280_temperature;BME280_humidity;BME280_pressure;Samples;Min_cycle;Max_cycle;Signal;HPM_P1;HPM_P2
2022/09/15 00:00:22;;;;;;;4.38;1.38;;;13.70;99.90;;;;;;4970096;28;20036;-74
2022/09/15 00:02:47;;;;;;;5.20;1.30;;;13.70;99.90;;;;;;4970085;28;20045;-73
2022/09/15 00:05:13;;;;;;;4.78;1.45;;;13.70;99.90;;;;;;4970725;28;20034;-74
2022/09/15 00:07:39;;;;;;;3.50;1.60;;;13.70;99.90;;;;;;4957510;28;20117;-73
2022/09/15 00:10:06;;;;;;;3.63;1.55;;;13.70;99.90;;;;;;4987980;28;20154;-74
2022/09/15 00:12:32;;;;;;;3.90;1.45;;;13.70;99.90;;;;;;4953671;28;20042;-74
2022/09/15 00:14:59;;;;;;;5.88;1.52;;;13.70;99.90;;;;;;4970632;28;20080;-74
2022/09/15 00:17:25;;;;;;;6.63;1.65;;;13.60;99.90;;;;;;4971155;28;20135;-73
2022/09/15 00:19:51;;;;;;;3.05;1.40;;;13.60;99.90;;;;;;4970902;28;21029;-73
2022/09/15 00:22:18;;;;;;;4.20;1.90;;;13.60;99.90;;;;;;4970445;28;20046;-73
2022/09/15 00:24:48;;;;;;;4.60;1.42;;;13.60;99.90;;;;;;4939344;28;20034;-73
2022/09/15 00:27:14;;;;;;;3.70;1.38;;;13.60;99.90;;;;;;4967746;28;20495;-73
2022/09/15 00:29:40;;;;;;;2.67;1.40;;;13.60;99.90;;;;;;4955519;28;20056;-73
2022/09/15 00:32:05;;;;;;;2.35;1.50;;;13.60;99.90;;;;;;4955909;28;20038;-73
2022/09/15 00:34:31;;;;;;;3.53;1.58;;;13.50;99.90;;;;;;4970500;28;20038;-73
2022/09/15 00:36:56;;;;;;;6.50;1.50;;;13.50;99.90;;;;;;4970169;28;20030;-74
2022/09/15 00:39:22;;;;;;;4.75;1.52;;;13.50;99.90;;;;;;4939687;28;20046;-73
2022/09/15 00:41:48;;;;;;;4.47;1.70;;;13.60;99.90;;;;;;4971697;28;20046;-73
2022/09/15 00:44:34;;;;;;;5.38;1.65;;;13.50;99.90;;;;;;4952330;28;20034;-73
2022/09/15 00:47:02;;;;;;;3.47;1.40;;;13.50;99.90;;;;;;4952262;28;20559;-73
2022/09/15 00:49:34;;;;;;;3.05;1.17;;;13.50;99.90;;;;;;4970145;28;20038;-74
2022/09/15 00:52:12;;;;;;;3.13;1.33;;;13.50;99.90;;;;;;4967642;28;20045;-74
2022/09/15 00:54:47;;;;;;;4.28;1.42;;;13.40;99.90;;;;;;4967351;28;20046;-74
2022/09/15 00:57:25;;;;;;;4.88;1.90;;;13.40;99.90;;;;;;4971167;28;20467;-74
2022/09/15 00:59:52;;;;;;;3.50;1.85;;;13.40;99.90;;;;;;4970664;28;20070;-74
2022/09/15 01:02:24;;;;;;;4.00;1.90;;;13.40;99.90;;;;;;4975129;28;20724;-73
2022/09/15 01:04:51;;;;;;;4.63;2.42;;;13.40;99.90;;;;;;4970108;28;20042;-74
2022/09/15 01:07:25;;;;;;;5.18;2.55;;;13.40;99.90;;;;;;4968933;28;20050;-74
2022/09/15 01:09:55;;;;;;;6.43;3.00;;;13.40;99.90;;;;;;4951692;28;20133;-73
2022/09/15 01:12:22;;;;;;;7.75;3.75;;;13.50;99.90;;;;;;4967285;28;20894;-74
2022/09/15 01:14:48;;;;;;;6.97;3.60;;;13.50;99.90;;;;;;4968238;28;20383;-73
2022/09/15 01:17:56;;;;;;;4.97;3.55;;;13.60;99.90;;;;;;4969080;28;20043;-73
2022/09/15 01:20:50;;;;;;;7.70;3.83;;;13.60;99.90;;;;;;4969688;28;22123;-73
2022/09/15 01:23:30;;;;;;;8.00;3.85;;;13.70;99.90;;;;;;4969371;28;20821;-74
2022/09/15 01:26:21;;;;;;;5.93;3.83;;;13.80;99.90;;;;;;4966267;28;20396;-73
2022/09/15 01:29:18;;;;;;;9.27;3.45;;;13.90;99.90;;;;;;4968231;28;20046;-74
2022/09/15 01:35:11;;;;;;;9.57;3.75;;;14.10;99.90;;;;;;4939648;28;20050;-74
2022/09/15 01:37:43;;;;;;;11.63;4.03;;;14.00;99.90;;;;;;4969101;28;20408;-73
2022/09/15 01:40:11;;;;;;;7.85;3.78;;;14.00;99.90;;;;;;4954909;28;20038;-73
2022/09/15 01:42:40;;;;;;;6.45;3.35;;;14.10;99.90;;;;;;4970472;28;20046;-73
2022/09/15 01:45:10;;;;;;;7.10;3.28;;;14.10;99.90;;;;;;4972771;28;20407;-74
2022/09/15 01:47:36;;;;;;;7.82;3.42;;;14.10;99.90;;;;;;4968873;28;20068;-73
2022/09/15 01:50:08;;;;;;;7.32;3.10;;;14.10;99.90;;;;;;4969243;28;20047;-73
2022/09/15 01:52:35;;;;;;;6.30;2.60;;;14.10;99.90;;;;;;4966958;28;20051;-73
2022/09/15 01:55:10;;;;;;;7.32;3.08;;;14.10;99.90;;;;;;4953359;28;20034;-74
2022/09/15 01:57:36;;;;;;;7.32;2.95;;;14.20;99.90;;;;;;4987330;28;20039;-73
2022/09/15 02:00:03;;;;;;;7.93;3.03;;;14.20;99.90;;;;;;4969088;28;20836;-73
2022/09/15 02:02:31;;;;;;;10.18;3.00;;;14.20;99.90;;;;;;4967550;28;20399;-73
2022/09/15 02:05:02;;;;;;;6.50;2.70;;;14.20;99.90;;;;;;4969531;28;20080;-73
2022/09/15 02:07:43;;;;;;;7.00;2.78;;;14.20;99.90;;;;;;4952908;28;20034;-73
2022/09/15 02:10:23;;;;;;;9.80;3.03;;;14.20;99.90;;;;;;4970474;28;20129;-73
2022/09/15 02:13:17;;;;;;;6.90;2.78;;;14.10;99.90;;;;;;4967899;28;20034;-73
2022/09/15 02:15:50;;;;;;;7.43;2.72;;;14.10;99.90;;;;;;4970033;28;20050;-73
2022/09/15 02:18:33;;;;;;;;;;;14.10;99.90;;;;;;4967250;28;20046;-73
2022/09/15 02:21:17;;;;;;;8.43;3.08;;;14.10;99.90;;;;;;4969796;28;19980;-73
2022/09/15 02:23:52;;;;;;;7.10;2.67;;;14.10;99.90;;;;;;4967547;28;20034;-73
2022/09/15 02:26:23;;;;;;;7.85;2.90;;;14.00;99.90;;;;;;4969100;28;20242;-73
2022/09/15 02:28:50;;;;;;;9.90;2.60;;;14.00;99.90;;;;;;4970004;28;20046;-73
2022/09/15 02:31:19;;;;;;;7.32;3.10;;;14.00;99.90;;;;;;4969661;28;20042;-72
2022/09/15 02:33:53;;;;;;;9.05;2.50;;;14.00;99.90;;;;;;4971396;28;20068;-73
2022/09/15 02:36:19;;;;;;;6.15;2.40;;;14.00;99.90;;;;;;4969805;28;20042;-73
2022/09/15 02:38:57;;;;;;;7.85;2.67;;;13.90;99.90;;;;;;4987570;28;20039;-73
2022/09/15 02:41:22;;;;;;;6.65;2.22;;;13.90;99.90;;;;;;4971639;28;20133;-72
2022/09/15 02:43:49;;;;;;;8.50;2.35;;;14.00;99.90;;;;;;4979595;28;20455;-73
2022/09/15 02:46:19;;;;;;;5.30;2.13;;;13.90;99.90;;;;;;4970135;28;20495;-73
2022/09/15 02:48:45;;;;;;;6.57;2.50;;;13.90;99.90;;;;;;4970080;28;20066;-73
2022/09/15 02:51:11;;;;;;;7.18;1.92;;;13.90;99.90;;;;;;4970189;28;20137;-73
2022/09/15 02:53:37;;;;;;;9.05;1.90;;;14.00;99.90;;;;;;4968691;28;20406;-73
2022/09/15 02:56:06;;;;;;;7.45;1.80;;;14.00;99.90;;;;;;4972645;28;20050;-73
2022/09/15 02:58:35;;;;;;;4.95;1.63;;;14.10;99.90;;;;;;4955046;28;20093;-73
2022/09/15 03:01:06;;;;;;;8.75;1.67;;;14.10;99.90;;;;;;4986565;28;20097;-73
2022/09/15 03:03:33;;;;;;;5.53;1.65;;;14.10;99.90;;;;;;4973335;28;20118;-73
2022/09/15 03:06:15;;;;;;;9.65;1.75;;;14.10;99.90;;;;;;4973593;28;20074;-73
2022/09/15 03:08:52;;;;;;;3.25;1.50;;;14.20;99.90;;;;;;4972998;28;20046;-73
2022/09/15 03:11:20;;;;;;;6.97;1.50;;;14.20;99.90;;;;;;4972220;28;20046;-73
2022/09/15 03:13:47;;;;;;;14.15;1.88;;;14.20;99.90;;;;;;4970306;28;20049;-72
2022/09/15 03:16:15;;;;;;;6.75;1.50;;;14.30;99.90;;;;;;4970731;28;20042;-73
2022/09/15 03:18:41;;;;;;;6.53;1.70;;;14.30;99.90;;;;;;4938782;28;20064;-73
2022/09/15 03:21:09;;;;;;;7.82;1.73;;;14.30;99.90;;;;;;4970609;28;20092;-73
2022/09/15 03:23:35;;;;;;;8.77;1.42;;;14.30;99.90;;;;;;4966801;28;20502;-73
2022/09/15 03:26:01;;;;;;;5.57;1.52;;;14.30;99.90;;;;;;4971592;28;20149;-73
2022/09/15 03:28:28;;;;;;;4.53;1.27;;;14.30;99.90;;;;;;4969702;28;20049;-73
2022/09/15 03:30:54;;;;;;;11.73;1.92;;;14.30;99.90;;;;;;4992325;28;20070;-73
2022/09/15 03:33:21;;;;;;;6.18;1.50;;;14.30;99.90;;;;;;4956653;28;20550;-73
2022/09/15 03:35:49;;;;;;;8.27;1.55;;;14.40;99.90;;;;;;4988266;28;20129;-73
2022/09/15 03:38:15;;;;;;;3.65;1.25;;;14.40;99.90;;;;;;4968735;28;20119;-73
2022/09/15 03:40:44;;;;;;;4.20;1.40;;;14.40;99.90;;;;;;4976294;28;20040;-73
2022/09/15 03:43:11;;;;;;;5.70;1.42;;;14.40;99.90;;;;;;4992244;28;20042;-73
2022/09/15 03:45:37;;;;;;;8.27;1.48;;;14.40;99.90;;;;;;4976588;28;20042;-73
2022/09/15 03:48:07;;;;;;;6.05;1.20;;;14.40;99.90;;;;;;4973771;28;20109;-74
2022/09/15 03:50:33;;;;;;;5.10;1.45;;;14.40;99.90;;;;;;4967756;28;20153;-73
2022/09/15 03:53:00;;;;;;;7.47;1.58;;;14.40;99.90;;;;;;4973278;28;20061;-74
2022/09/15 03:55:26;;;;;;;6.28;1.20;;;14.40;99.90;;;;;;4975870;28;20041;-73
2022/09/15 03:57:52;;;;;;;4.85;1.50;;;14.40;99.90;;;;;;4976451;28;20046;-73
2022/09/15 04:00:18;;;;;;;6.63;1.40;;;14.40;99.90;;;;;;4988522;28;20038;-73
2022/09/15 04:02:43;;;;;;;8.95;1.58;;;14.30;99.90;;;;;;4972947;28;20096;-73
2022/09/15 04:05:12;;;;;;;4.93;1.40;;;14.30;99.90;;;;;;4953044;28;20046;-73
2022/09/15 04:07:38;;;;;;;5.40;1.45;;;14.30;99.90;;;;;;4974502;28;20075;-74
2022/09/15 04:10:05;;;;;;;8.52;1.77;;;14.30;99.90;;;;;;4975552;28;20046;-73
2022/09/15 04:12:31;;;;;;;6.00;1.73;;;14.30;99.90;;;;;;4968223;28;20038;-74
2022/09/15 04:14:57;;;;;;;6.47;1.58;;;14.30;99.90;;;;;;4959348;28;20092;-73
2022/09/15 04:17:22;;;;;;;6.55;1.77;;;14.20;99.90;;;;;;4974952;28;20514;-73
2022/09/15 04:19:48;;;;;;;9.85;1.40;;;14.20;99.90;;;;;;4991240;28;20053;-73
2022/09/15 04:22:14;;;;;;;6.40;1.75;;;14.10;99.90;;;;;;4975154;28;20038;-74
2022/09/15 04:24:40;;;;;;;9.85;1.63;;;14.10;99.90;;;;;;4972419;28;20051;-74
2022/09/15 04:27:05;;;;;;;7.90;1.55;;;14.20;99.90;;;;;;4975442;28;20487;-74
2022/09/15 04:29:31;;;;;;;8.80;1.73;;;14.20;99.90;;;;;;4988176;28;20058;-74
2022/09/15 04:31:57;;;;;;;7.55;1.67;;;14.10;99.90;;;;;;4975281;28;20034;-73
2022/09/15 04:34:23;;;;;;;6.78;1.65;;;14.10;99.90;;;;;;4967191;28;20046;-73
2022/09/15 04:36:49;;;;;;;8.30;1.83;;;14.10;99.90;;;;;;4978851;28;20084;-73
2022/09/15 04:39:15;;;;;;;6.65;1.60;;;14.10;99.90;;;;;;4976997;28;20494;-73
2022/09/15 04:41:41;;;;;;;5.63;1.80;;;14.10;99.90;;;;;;4974299;28;20045;-73
2022/09/15 04:44:06;;;;;;;6.40;1.50;;;14.10;99.90;;;;;;4975241;28;20070;-73
2022/09/15 04:46:32;;;;;;;7.75;1.80;;;14.10;99.90;;;;;;4975014;28;20045;-73
2022/09/15 04:48:58;;;;;;;7.45;1.75;;;14.10;99.90;;;;;;4975158;28;20054;-73
2022/09/15 04:51:24;;;;;;;8.60;1.67;;;14.10;99.90;;;;;;4974579;28;20056;-73
2022/09/15 04:53:50;;;;;;;5.97;1.77;;;14.10;99.90;;;;;;4975794;28;20081;-73
2022/09/15 04:56:22;;;;;;;11.07;1.75;;;14.00;99.90;;;;;;4979720;28;20043;-73
2022/09/15 04:58:50;;;;;;;7.85;1.50;;;14.00;99.90;;;;;;4957632;28;20499;-73
2022/09/15 05:01:22;;;;;;;6.97;1.73;;;14.00;99.90;;;;;;4968275;28;20430;-73
2022/09/15 05:03:48;;;;;;;7.70;1.80;;;14.00;99.90;;;;;;4974871;28;20062;-73
2022/09/15 05:06:16;;;;;;;8.10;1.40;;;14.00;99.90;;;;;;4982694;28;20042;-73
2022/09/15 05:08:45;;;;;;;8.93;1.50;;;14.00;99.90;;;;;;4989203;28;20034;-73
2022/09/15 05:11:11;;;;;;;6.93;1.42;;;14.00;99.90;;;;;;4974560;28;20501;-76
2022/09/15 05:13:38;;;;;;;7.32;1.92;;;14.00;99.90;;;;;;4974247;28;20379;-73
2022/09/15 05:16:18;;;;;;;6.85;1.40;;;14.00;99.90;;;;;;4989324;28;20396;-73
2022/09/15 05:18:45;;;;;;;4.88;1.13;;;14.00;99.90;;;;;;4972899;28;20046;-73
2022/09/15 05:21:12;;;;;;;6.43;1.50;;;14.10;99.90;;;;;;4958790;28;20121;-74
2022/09/15 05:23:38;;;;;;;7.82;1.52;;;14.10;99.90;;;;;;4969656;28;20038;-74
2022/09/15 05:26:06;;;;;;;4.80;1.60;;;14.10;99.90;;;;;;4972909;28;20046;-73
2022/09/15 05:28:35;;;;;;;6.72;1.40;;;14.10;99.90;;;;;;4963601;28;20070;-74
2022/09/15 05:31:01;;;;;;;7.72;1.52;;;14.20;99.90;;;;;;4961924;28;20050;-73
2022/09/15 05:33:27;;;;;;;10.30;1.65;;;14.20;99.90;;;;;;4979516;28;20125;-76
2022/09/15 05:35:55;;;;;;;4.85;1.30;;;14.20;99.90;;;;;;4974524;28;20649;-74
2022/09/15 05:38:21;;;;;;;8.40;1.38;;;14.20;99.90;;;;;;4967715;28;20034;-74
2022/09/15 05:40:46;;;;;;;6.22;1.33;;;14.20;99.90;;;;;;4957232;28;20529;-74
2022/09/15 05:43:13;;;;;;;4.88;1.35;;;14.20;99.90;;;;;;4974361;28;20046;-74
2022/09/15 05:45:41;;;;;;;11.15;1.45;;;14.20;99.90;;;;;;4956358;28;20048;-75
2022/09/15 05:48:08;;;;;;;16.45;1.30;;;14.20;99.90;;;;;;4972864;28;20384;-76
2022/09/15 05:50:34;;;;;;;7.72;1.50;;;14.20;99.90;;;;;;4984735;28;20042;-74
2022/09/15 05:53:00;;;;;;;8.40;1.48;;;14.20;99.90;;;;;;4989126;28;20053;-74
2022/09/15 05:55:25;;;;;;;4.72;1.30;;;14.20;99.90;;;;;;4977305;28;20516;-74
2022/09/15 05:57:52;;;;;;;5.57;1.30;;;14.20;99.90;;;;;;4967601;28;20506;-73
2022/09/15 06:00:18;;;;;;;8.52;1.40;;;14.30;99.90;;;;;;4991474;28;20030;-73
2022/09/15 06:02:43;;;;;;;7.72;1.65;;;14.30;99.90;;;;;;4961635;28;20050;-73
2022/09/15 06:05:09;;;;;;;4.40;1.30;;;14.30;99.90;;;;;;4961049;28;20060;-74
2022/09/15 06:07:35;;;;;;;7.90;1.65;;;14.30;99.90;;;;;;4974519;28;20043;-74
2022/09/15 06:10:01;;;;;;;6.93;1.30;;;14.30;99.90;;;;;;4988639;28;20038;-74
2022/09/15 06:12:27;;;;;;;6.38;1.73;;;14.20;99.90;;;;;;4979768;28;20411;-73
2022/09/15 06:14:55;;;;;;;6.40;1.50;;;14.30;99.90;;;;;;4965940;28;20039;-73
2022/09/15 06:17:24;;;;;;;7.35;1.40;;;14.30;99.90;;;;;;4957903;28;20039;-73
2022/09/15 06:19:49;;;;;;;6.90;1.42;;;14.30;99.90;;;;;;4982663;28;20344;-73
2022/09/15 06:22:15;;;;;;;8.15;1.70;;;14.30;99.90;;;;;;4953977;28;20473;-73
2022/09/15 06:24:40;;;;;;;10.20;1.70;;;14.40;99.90;;;;;;4963987;28;20038;-73
2022/09/15 06:27:06;;;;;;;7.20;1.73;;;14.40;99.90;;;;;;4967758;28;20038;-74
2022/09/15 06:29:32;;;;;;;5.18;1.27;;;14.40;99.90;;;;;;4964632;28;20041;-74
2022/09/15 06:32:01;;;;;;;9.65;1.60;;;14.40;99.90;;;;;;4965450;28;20085;-74
2022/09/15 06:34:31;;;;;;;7.53;1.63;;;14.50;99.90;;;;;;4984284;28;20038;-74
2022/09/15 06:36:58;;;;;;;6.95;1.52;;;14.50;99.90;;;;;;4961259;28;20134;-74
2022/09/15 06:39:24;;;;;;;7.85;1.40;;;14.60;99.90;;;;;;4955855;28;20121;-74
2022/09/15 06:41:50;;;;;;;8.48;1.63;;;14.60;99.90;;;;;;4968498;28;20062;-74
2022/09/15 06:44:15;;;;;;;9.48;1.58;;;14.60;99.90;;;;;;4967526;28;20650;-74
2022/09/15 06:46:44;;;;;;;4.88;1.33;;;14.70;99.90;;;;;;4967301;28;20039;-74
2022/09/15 06:49:09;;;;;;;5.88;1.38;;;14.70;99.90;;;;;;4973492;28;20498;-73
2022/09/15 06:51:35;;;;;;;6.88;1.17;;;14.70;99.90;;;;;;4961320;28;20121;-73
2022/09/15 06:54:01;;;;;;;10.55;1.58;;;14.80;99.90;;;;;;4975614;28;20065;-74
2022/09/15 06:56:28;;;;;;;9.85;1.40;;;14.80;99.90;;;;;;4972401;28;20062;-74
2022/09/15 06:58:55;;;;;;;6.53;1.30;;;15.00;99.90;;;;;;4973753;28;20034;-74
2022/09/15 07:01:24;;;;;;;6.72;1.33;;;15.10;99.90;;;;;;4955492;28;20812;-73
2022/09/15 07:03:50;;;;;;;12.55;2.00;;;15.20;99.90;;;;;;4971670;28;20034;-73
2022/09/15 07:06:16;;;;;;;8.70;1.48;;;15.30;99.90;;;;;;4974949;28;20058;-73
2022/09/15 07:08:42;;;;;;;7.32;1.67;;;15.40;99.90;;;;;;4962550;28;20058;-73
2022/09/15 07:11:09;;;;;;;7.63;1.58;;;15.50;99.90;;;;;;4982613;28;20054;-75
2022/09/15 07:13:35;;;;;;;7.60;1.67;;;15.50;99.90;;;;;;4968724;28;20046;-73
2022/09/15 07:16:02;;;;;;;7.65;1.38;;;15.60;99.90;;;;;;4957880;28;20065;-73
2022/09/15 07:18:29;;;;;;;6.30;1.60;;;15.70;99.90;;;;;;4971526;28;20166;-73
2022/09/15 07:21:11;;;;;;;8.75;1.92;;;15.80;99.90;;;;;;4960928;28;20039;-73
2022/09/15 07:23:37;;;;;;;9.05;1.55;;;15.90;99.90;;;;;;4974535;28;20092;-73
2022/09/15 07:26:08;;;;;;;7.85;1.60;;;16.10;99.90;;;;;;4987036;28;20446;-74
2022/09/15 07:28:34;;;;;;;9.97;1.70;;;16.20;99.90;;;;;;4973704;28;20101;-75
2022/09/15 07:31:00;;;;;;;8.77;1.50;;;16.30;99.90;;;;;;4959609;28;20046;-74
2022/09/15 07:33:28;;;;;;;9.45;1.88;;;16.40;99.90;;;;;;4968036;28;20042;-70
2022/09/15 07:35:57;;;;;;;10.25;1.40;;;16.50;99.90;;;;;;4960698;28;20080;-73
2022/09/15 07:38:22;;;;;;;10.93;1.90;;;16.50;99.90;;;;;;4975594;28;20050;-73
2022/09/15 07:40:48;;;;;;;5.75;1.35;;;16.50;99.90;;;;;;4975530;28;20100;-74
2022/09/15 07:43:14;;;;;;;15.23;1.50;;;16.60;99.90;;;;;;4975067;28;20034;-74
2022/09/15 07:45:40;;;;;;;11.85;1.80;;;16.60;99.90;;;;;;4973509;28;20084;-73
2022/09/15 07:48:05;;;;;;;10.02;1.65;;;16.70;99.90;;;;;;4965285;28;20042;-73
2022/09/15 07:50:31;;;;;;;6.05;1.27;;;16.80;99.90;;;;;;4955823;28;20125;-73
2022/09/15 07:53:06;;;;;;;3.90;1.40;;;16.90;99.90;;;;;;4973045;28;20049;-73
2022/09/15 07:55:32;;;;;;;8.30;1.40;;;16.90;99.90;;;;;;4956052;28;20054;-73
2022/09/15 07:58:01;;;;;;;9.43;1.52;;;16.90;99.90;;;;;;4969925;28;20042;-73
2022/09/15 08:00:27;;;;;;;8.48;1.35;;;16.90;99.90;;;;;;4967297;28;20129;-73
2022/09/15 08:02:53;;;;;;;7.53;1.48;;;16.90;99.90;;;;;;4955932;28;20034;-74
2022/09/15 08:05:19;;;;;;;6.15;1.25;;;16.90;99.90;;;;;;4954514;28;20035;-73
2022/09/15 08:07:45;;;;;;;10.60;1.27;;;16.90;99.90;;;;;;4969388;28;20545;-74
2022/09/15 08:10:10;;;;;;;7.35;1.35;;;17.00;99.90;;;;;;4982356;28;20129;-73
2022/09/15 08:12:36;;;;;;;5.93;1.50;;;17.00;99.90;;;;;;4971477;28;20038;-74
2022/09/15 08:15:03;;;;;;;12.02;2.30;;;17.00;99.90;;;;;;4979623;28;20814;-74
2022/09/15 08:17:29;;;;;;;8.38;1.35;;;17.10;99.90;;;;;;4970492;28;20031;-75
2022/09/15 08:19:55;;;;;;;8.88;1.55;;;17.10;99.90;;;;;;4971687;28;20128;-74
2022/09/15 08:22:20;;;;;;;9.90;1.60;;;17.20;99.90;;;;;;4934811;28;20505;-74
2022/09/15 08:24:46;;;;;;;5.70;1.30;;;17.30;99.90;;;;;;4972058;28;20042;-73
2022/09/15 08:27:11;;;;;;;14.27;1.23;;;17.50;99.90;;;;;;4973802;28;20299;-75
2022/09/15 08:29:40;;;;;;;7.53;1.35;;;17.60;99.90;;;;;;4965253;28;20034;-74
2022/09/15 08:32:06;;;;;;;5.25;1.15;;;17.70;99.90;;;;;;4970149;28;20044;-74
2022/09/15 08:34:31;;;;;;;4.78;1.25;;;17.90;99.90;;;;;;4970140;28;20696;-74
2022/09/15 08:36:57;;;;;;;5.55;1.10;;;17.90;99.90;;;;;;4971403;28;20044;-74
2022/09/15 08:39:26;;;;;;;7.28;1.38;;;18.00;99.90;;;;;;4973292;28;20042;-73
2022/09/15 08:41:53;;;;;;;8.73;1.40;;;18.10;99.90;;;;;;4972449;28;20501;-72
2022/09/15 08:44:37;;;;;;;5.80;1.13;;;18.20;99.90;;;;;;4968694;28;20034;-71
2022/09/15 08:47:10;;;;;;;5.43;1.23;;;18.20;99.90;;;;;;4953786;28;20495;-72
2022/09/15 08:49:57;;;;;;;3.53;1.10;;;18.30;99.90;;;;;;4969134;28;20491;-73
2022/09/15 08:52:30;;;;;;;3.85;1.25;;;18.30;99.90;;;;;;4967399;28;20042;-72
2022/09/15 08:54:58;;;;;;;4.57;1.20;;;18.40;99.90;;;;;;4964413;28;20046;-72
2022/09/15 08:57:25;;;;;;;6.28;1.15;;;18.40;99.90;;;;;;4951927;28;20526;-70
2022/09/15 08:59:53;;;;;;;3.15;0.93;;;18.50;99.90;;;;;;4967127;28;20419;-72
2022/09/15 09:02:36;;;;;;;4.60;1.17;;;18.50;99.90;;;;;;4965286;28;20518;-72
2022/09/15 09:05:23;;;;;;;4.70;1.00;;;18.40;99.90;;;;;;4971347;28;20822;-73
2022/09/15 09:08:21;;;;;;;3.90;1.00;;;18.50;99.90;;;;;;4984718;28;20511;-72
2022/09/15 09:10:55;;;;;;;8.00;1.40;;;18.60;99.90;;;;;;4922979;28;20518;-72
2022/09/15 09:13:42;;;;;;;6.28;1.10;;;18.70;99.90;;;;;;4966739;28;22247;-71
2022/09/15 09:16:16;;;;;;;9.45;1.75;;;18.80;99.90;;;;;;4969559;28;20598;-72
2022/09/15 09:19:01;;;;;;;8.38;1.15;;;18.90;99.90;;;;;;4967932;28;20527;-71
2022/09/15 09:21:38;;;;;;;6.78;1.50;;;18.90;99.90;;;;;;4967891;28;20542;-72
2022/09/15 09:24:13;;;;;;;5.85;1.40;;;18.90;99.90;;;;;;4967508;28;20435;-73
2022/09/15 09:26:39;;;;;;;5.63;1.38;;;18.90;99.90;;;;;;4970398;28;20046;-72
2022/09/15 09:29:36;;;;;;;7.78;1.30;;;18.90;99.90;;;;;;4968512;28;20136;-70
2022/09/15 09:32:12;;;;;;;4.28;1.08;;;18.90;99.90;;;;;;4941524;28;20069;-70
2022/09/15 09:34:46;;;;;;;4.00;1.15;;;18.90;99.90;;;;;;4965777;28;20522;-70
2022/09/15 09:37:14;;;;;;;8.27;1.33;;;18.90;99.90;;;;;;4982785;28;20490;-70
2022/09/15 09:39:40;;;;;;;8.02;1.60;;;19.00;99.90;;;;;;4966646;28;20427;-70
2022/09/15 09:42:11;;;;;;;5.00;1.08;;;19.10;99.90;;;;;;4964783;28;20671;-70
2022/09/15 09:44:38;;;;;;;7.53;1.15;;;19.30;99.90;;;;;;4979757;28;20419;-72
2022/09/15 09:47:04;;;;;;;5.03;1.05;;;19.50;99.90;;;;;;4978858;28;20053;-71
2022/09/15 09:49:33;;;;;;;4.88;1.10;;;19.60;99.90;;;;;;4946596;28;20928;-72
2022/09/15 09:52:03;;;;;;;4.57;1.10;;;19.70;99.90;;;;;;4949857;28;20125;-71
2022/09/15 09:54:31;;;;;;;4.85;1.08;;;19.80;99.90;;;;;;4967650;28;20390;-71
2022/09/15 09:57:20;;;;;;;7.30;1.20;;;19.80;99.90;;;;;;4982105;28;20422;-71
2022/09/15 09:59:49;;;;;;;7.32;1.38;;;19.90;99.90;;;;;;4948990;28;20035;-71
2022/09/15 10:02:23;;;;;;;4.13;1.00;;;20.00;99.90;;;;;;4967209;28;20077;-71
2022/09/15 10:05:01;;;;;;;5.88;1.10;;;20.00;99.90;;;;;;4966282;28;20045;-71
2022/09/15 10:07:27;;;;;;;8.13;1.30;;;20.00;99.90;;;;;;4975087;28;20049;-71
2022/09/15 10:09:58;;;;;;;4.70;1.45;;;20.00;99.90;;;;;;4961956;28;20426;-73
2022/09/15 10:12:29;;;;;;;7.85;1.10;;;20.00;99.90;;;;;;4964246;28;20219;-75
2022/09/15 10:14:58;;;;;;;7.20;1.37;;;20.10;99.90;;;;;;4966333;28;20056;-73
2022/09/15 10:17:38;;;;;;;4.85;1.17;;;20.10;99.90;;;;;;4966328;28;20407;-75
2022/09/15 10:20:19;;;;;;;5.72;1.20;;;20.10;99.90;;;;;;4964175;28;20053;-72
2022/09/15 10:22:47;;;;;;;5.35;1.00;;;20.10;99.80;;;;;;4974953;28;20049;-72
2022/09/15 10:25:19;;;;;;;2.78;0.88;;;20.10;99.70;;;;;;4964448;28;20038;-70
2022/09/15 10:28:21;;;;;;;4.65;1.13;;;20.00;98.00;;;;;;4966072;28;20483;-72
2022/09/15 10:31:12;;;;;;;2.10;1.00;;;19.90;96.30;;;;;;4976593;28;20450;-72
2022/09/15 10:33:40;;;;;;;2.47;0.60;;;19.90;96.70;;;;;;4967659;28;20065;-72
2022/09/15 10:36:15;;;;;;;5.78;0.90;;;20.00;96.80;;;;;;4967641;28;20133;-72
2022/09/15 10:38:53;;;;;;;5.22;0.70;;;20.10;96.30;;;;;;4982044;28;20042;-73
2022/09/15 10:41:30;;;;;;;3.55;0.88;;;20.20;95.50;;;;;;4966641;28;20057;-72
2022/09/15 10:44:17;;;;;;;6.95;0.93;;;20.40;95.80;;;;;;4965996;28;20495;-72
2022/09/15 10:47:11;;;;;;;4.00;0.90;;;20.50;94.20;;;;;;4970887;28;20042;-72
2022/09/15 10:49:58;;;;;;;4.28;0.98;;;20.70;94.30;;;;;;4967974;28;20046;-72
2022/09/15 10:52:30;;;;;;;3.92;0.90;;;21.20;94.90;;;;;;4965965;28;20046;-72
2022/09/15 10:55:06;;;;;;;6.47;0.82;;;21.30;93.90;;;;;;4968886;28;20045;-72
2022/09/15 10:58:03;;;;;;;4.00;1.20;;;21.30;93.20;;;;;;4971609;28;20126;-72
2022/09/15 11:00:39;;;;;;;4.07;0.80;;;21.20;92.80;;;;;;4953490;28;20061;-72
2022/09/15 11:03:13;;;;;;;3.78;0.98;;;21.00;92.90;;;;;;4974751;28;20074;-72
2022/09/15 11:05:54;;;;;;;4.10;1.15;;;20.90;94.00;;;;;;4971359;28;20030;-72
2022/09/15 11:08:56;;;;;;;4.90;0.90;;;20.90;93.60;;;;;;4968149;28;20033;-72
2022/09/15 11:11:41;;;;;;;4.30;0.82;;;20.90;94.30;;;;;;4961065;28;20031;-72
2022/09/15 11:14:28;;;;;;;6.05;1.48;;;20.90;94.90;;;;;;4976513;28;20074;-72
2022/09/15 11:17:05;;;;;;;3.63;1.00;;;21.00;95.80;;;;;;4972319;28;20049;-72
2022/09/15 11:19:51;;;;;;;5.45;1.40;;;21.20;97.20;;;;;;4975827;28;20035;-73
2022/09/15 11:22:26;;;;;;;3.95;1.30;;;21.30;95.60;;;;;;4957540;28;20087;-72
2022/09/15 11:25:21;;;;;;;7.13;1.38;;;21.10;96.10;;;;;;5001446;28;20038;-72
2022/09/15 11:28:03;;;;;;;5.25;1.20;;;20.90;96.10;;;;;;4968601;28;20049;-72
2022/09/15 11:30:36;;;;;;;4.28;1.05;;;20.70;96.80;;;;;;4979688;28;20387;-72
2022/09/15 11:33:11;;;;;;;4.90;1.05;;;20.40;97.80;;;;;;4989473;28;20030;-72
2022/09/15 11:35:58;;;;;;;9.23;1.30;;;20.20;98.80;;;;;;4968018;28;20407;-72
2022/09/15 11:38:52;;;;;;;5.97;1.20;;;19.90;99.90;;;;;;4978031;28;20034;-71
2022/09/15 11:41:47;;;;;;;7.53;1.10;;;19.60;99.90;;;;;;4975502;28;20430;-72
2022/09/15 11:44:17;;;;;;;5.20;0.93;;;19.40;99.90;;;;;;4985154;28;20049;-72
2022/09/15 11:46:56;;;;;;;7.00;1.40;;;19.30;99.90;;;;;;4980315;28;20384;-71
2022/09/15 11:49:54;;;;;;;4.13;1.08;;;19.40;99.90;;;;;;4970605;28;20376;-72
2022/09/15 11:52:28;;;;;;;4.13;0.98;;;19.50;99.90;;;;;;4971547;28;20446;-72
2022/09/15 11:55:01;;;;;;;6.97;1.20;;;19.80;99.90;;;;;;4982357;28;20038;-72
2022/09/15 11:57:35;;;;;;;4.30;1.30;;;20.20;99.90;;;;;;4975664;28;20046;-71
2022/09/15 12:00:11;;;;;;;3.13;1.20;;;20.60;99.90;;;;;;4973718;28;20387;-72
2022/09/15 12:02:57;;;;;;;6.68;1.20;;;21.00;99.20;;;;;;4972655;28;20049;-72
2022/09/15 12:05:35;;;;;;;5.65;1.42;;;20.90;99.60;;;;;;4969414;28;20418;-72
2022/09/15 12:08:21;;;;;;;7.35;0.95;;;20.80;98.80;;;;;;4970079;28;20113;-71
2022/09/15 12:10:54;;;;;;;3.38;1.02;;;20.60;99.10;;;;;;4953252;28;20053;-71
2022/09/15 12:13:23;;;;;;;3.15;1.30;;;20.70;99.20;;;;;;4955944;28;20439;-72
2022/09/15 12:15:50;;;;;;;4.78;0.90;;;21.00;97.30;;;;;;4962072;28;20542;-70
2022/09/15 12:18:24;;;;;;;5.38;0.95;;;21.30;97.10;;;;;;4967055;28;20562;-71
2022/09/15 12:21:02;;;;;;;1.95;0.80;;;21.30;96.50;;;;;;4954213;28;20492;-73
2022/09/15 12:23:42;;;;;;;3.83;0.90;;;21.20;93.20;;;;;;4974011;28;20486;-73
2022/09/15 12:26:17;;;;;;;2.38;0.93;;;21.00;93.50;;;;;;4966744;28;20054;-73
2022/09/15 12:28:46;;;;;;;4.03;0.88;;;20.80;94.50;;;;;;4963937;28;20395;-73
2022/09/15 12:31:26;;;;;;;3.13;0.75;;;20.80;94.50;;;;;;4972888;28;20423;-73
2022/09/15 12:33:55;;;;;;;4.15;0.93;;;20.90;93.90;;;;;;4986145;28;20450;-73
2022/09/15 12:36:45;;;;;;;3.40;0.80;;;21.10;93.70;;;;;;4966749;28;20507;-73
2022/09/15 12:39:36;;;;;;;2.28;0.73;;;21.60;91.70;;;;;;4980979;28;20051;-75
2022/09/15 12:42:22;;;;;;;2.83;0.70;;;21.60;90.60;;;;;;4968311;28;20054;-74
2022/09/15 12:45:11;;;;;;;3.85;0.73;;;21.40;91.00;;;;;;4973671;28;20440;-74
2022/09/15 12:47:38;;;;;;;3.25;0.80;;;21.20;91.00;;;;;;4986747;28;20077;-73
2022/09/15 12:50:13;;;;;;;3.03;0.73;;;21.10;91.90;;;;;;4970997;28;20051;-74
2022/09/15 12:52:45;;;;;;;5.70;1.00;;;20.90;91.70;;;;;;4970262;28;20034;-73
2022/09/15 12:55:26;;;;;;;1.50;0.70;;;21.00;92.00;;;;;;4966562;28;20130;-73
2022/09/15 12:58:07;;;;;;;3.63;0.70;;;21.10;90.90;;;;;;4965592;28;20039;-74
2022/09/15 13:00:38;;;;;;;2.35;0.65;;;21.10;91.20;;;;;;4982231;28;20116;-73
2022/09/15 13:03:22;;;;;;;3.97;0.63;;;21.30;91.30;;;;;;4965310;28;20035;-72
2022/09/15 13:05:49;;;;;;;3.17;0.68;;;21.40;90.40;;;;;;4958115;28;20081;-72
2022/09/15 13:08:24;;;;;;;4.15;1.00;;;21.40;91.60;;;;;;4953430;28;20042;-72
2022/09/15 13:11:13;;;;;;;4.40;0.82;;;21.60;91.50;;;;;;4962082;28;20042;-72